sensor_id;sensor_type;location;lat;lon;timestamp;P1;durP1;ratioP1;P2;durP2;ratioP2
57233;SDS011;43090;52.604;13.318;2023-04-24T00:01:19;5.88;;;3.92;;
57233;SDS011;43090;52.604;13.318;2023-04-24T00:03:45;6.20;;;4.03;;
57233;SDS011;43090;52.604;13.318;2023-04-24T00:06:12;9.68;;;4.15;;
57233;SDS011;43090;52.604;13.318;2023-04-24T00:08:39;8.48;;;4.07;;
57233;SDS011;43090;52.604;13.318;2023-04-24T00:11:05;4.82;;;3.55;;
57233;SDS011;43090;52.604;13.318;2023-04-24T00:13:32;8.07;;;4.13;;
57233;SDS011;43090;52.604;13.318;2023-04-24T00:15:58;5.40;;;4.20;;
57233;SDS011;43090;52.604;13.318;2023-04-24T00:18:25;8.98;;;3.70;;
57233;SDS011;43090;52.604;13.318;2023-04-24T00:20:51;7.20;;;3.95;;
57233;SDS011;43090;52.604;13.318;2023-04-24T00:23:18;6.85;;;4.13;;
57233;SDS011;43090;52.604;13.318;2023-04-24T00:28:11;8.93;;;3.85;;
57233;SDS011;43090;52.604;13.318;2023-04-24T00:30:38;7.07;;;4.07;;
57233;SDS011;43090;52.604;13.318;2023-04-24T00:33:04;6.28;;;3.53;;
57233;SDS011;43090;52.604;13.318;2023-04-24T00:35:31;8.35;;;3.95;;
57233;SDS011;43090;52.604;13.318;2023-04-24T00:37:57;5.95;;;3.90;;
57233;SDS011;43090;52.604;13.318;2023-04-24T00:40:24;5.88;;;4.10;;
57233;SDS011;43090;52.604;13.318;2023-04-24T00:42:50;10.75;;;3.72;;
57233;SDS011;43090;52.604;13.318;2023-04-24T00:45:17;6.22;;;4.25;;
57233;SDS011;43090;52.604;13.318;2023-04-24T00:47:43;8.07;;;3.95;;
57233;SDS011;43090;52.604;13.318;2023-04-24T00:50:11;8.13;;;3.90;;
57233;SDS011;43090;52.604;13.318;2023-04-24T00:52:40;4.88;;;3.50;;
57233;SDS011;43090;52.604;13.318;2023-04-24T00:57:34;9.30;;;4.53;;
57233;SDS011;43090;52.604;13.318;2023-04-24T01:00:00;8.80;;;4.22;;
57233;SDS011;43090;52.604;13.318;2023-04-24T01:02:27;7.65;;;3.85;;
57233;SDS011;43090;52.604;13.318;2023-04-24T01:07:20;6.93;;;4.18;;
57233;SDS011;43090;52.604;13.318;2023-04-24T01:09:47;6.35;;;4.45;;
57233;SDS011;43090;52.604;13.318;2023-04-24T01:12:17;9.52;;;4.72;;
57233;SDS011;43090;52.604;13.318;2023-04-24T01:14:44;8.27;;;4.45;;
57233;SDS011;43090;52.604;13.318;2023-04-24T01:17:11;7.10;;;4.32;;
57233;SDS011;43090;52.604;13.318;2023-04-24T01:22:12;6.70;;;4.53;;
57233;SDS011;43090;52.604;13.318;2023-04-24T01:24:40;10.88;;;4.60;;
57233;SDS011;43090;52.604;13.318;2023-04-24T01:27:08;9.30;;;4.68;;
57233;SDS011;43090;52.604;13.318;2023-04-24T01:29:36;5.53;;;3.65;;
57233;SDS011;43090;52.604;13.318;2023-04-24T01:32:03;9.30;;;4.22;;
57233;SDS011;43090;52.604;13.318;2023-04-24T01:50:23;6.97;;;4.68;;
57233;SDS011;43090;52.604;13.318;2023-04-24T01:52:50;9.93;;;5.35;;
57233;SDS011;43090;52.604;13.318;2023-04-24T01:55:16;11.38;;;5.07;;
57233;SDS011;43090;52.604;13.318;2023-04-24T01:57:43;9.15;;;5.22;;
57233;SDS011;43090;52.604;13.318;2023-04-24T02:00:09;9.00;;;6.03;;
57233;SDS011;43090;52.604;13.318;2023-04-24T02:02:38;7.68;;;5.50;;
57233;SDS011;43090;52.604;13.318;2023-04-24T02:05:06;7.63;;;5.00;;
57233;SDS011;43090;52.604;13.318;2023-04-24T02:07:34;6.95;;;4.38;;
57233;SDS011;43090;52.604;13.318;2023-04-24T02:10:00;9.65;;;5.25;;
57233;SDS011;43090;52.604;13.318;2023-04-24T02:14:54;8.25;;;4.90;;
57233;SDS011;43090;52.604;13.318;2023-04-24T02:17:20;7.75;;;4.63;;
57233;SDS011;43090;52.604;13.318;2023-04-24T02:19:46;7.63;;;5.07;;
57233;SDS011;43090;52.604;13.318;2023-04-24T02:22:13;7.45;;;4.57;;
57233;SDS011;43090;52.604;13.318;2023-04-24T02:24:40;7.18;;;4.75;;
57233;SDS011;43090;52.604;13.318;2023-04-24T02:27:06;7.22;;;4.53;;
57233;SDS011;43090;52.604;13.318;2023-04-24T02:29:33;7.22;;;5.30;;
57233;SDS011;43090;52.604;13.318;2023-04-24T02:31:59;7.05;;;4.95;;
57233;SDS011;43090;52.604;13.318;2023-04-24T02:34:26;7.88;;;4.82;;
57233;SDS011;43090;52.604;13.318;2023-04-24T02:36:52;7.60;;;4.32;;
57233;SDS011;43090;52.604;13.318;2023-04-24T02:39:20;10.25;;;5.05;;
57233;SDS011;43090;52.604;13.318;2023-04-24T02:41:46;7.53;;;5.38;;
57233;SDS011;43090;52.604;13.318;2023-04-24T02:44:13;10.30;;;6.55;;
57233;SDS011;43090;52.604;13.318;2023-04-24T02:46:39;8.73;;;5.45;;
57233;SDS011;43090;52.604;13.318;2023-04-24T02:49:08;8.13;;;5.28;;
57233;SDS011;43090;52.604;13.318;2023-04-24T02:51:34;8.80;;;6.50;;
57233;SDS011;43090;52.604;13.318;2023-04-24T02:54:01;9.95;;;6.13;;
57233;SDS011;43090;52.604;13.318;2023-04-24T02:56:27;12.48;;;6.78;;
57233;SDS011;43090;52.604;13.318;2023-04-24T02:58:53;7.97;;;6.13;;
57233;SDS011;43090;52.604;13.318;2023-04-24T03:01:20;10.98;;;6.03;;
57233;SDS011;43090;52.604;13.318;2023-04-24T03:03:46;9.23;;;6.10;;
57233;SDS011;43090;52.604;13.318;2023-04-24T03:08:39;7.93;;;5.45;;
57233;SDS011;43090;52.604;13.318;2023-04-24T03:11:06;9.35;;;6.22;;
57233;SDS011;43090;52.604;13.318;2023-04-24T03:13:32;8.13;;;5.90;;
57233;SDS011;43090;52.604;13.318;2023-04-24T03:15:59;8.48;;;5.72;;
57233;SDS011;43090;52.604;13.318;2023-04-24T03:18:25;15.00;;;7.20;;
57233;SDS011;43090;52.604;13.318;2023-04-24T03:20:52;12.10;;;6.47;;
57233;SDS011;43090;52.604;13.318;2023-04-24T03:23:18;8.73;;;5.95;;
57233;SDS011;43090;52.604;13.318;2023-04-24T03:25:45;11.38;;;5.85;;
57233;SDS011;43090;52.604;13.318;2023-04-24T03:30:38;10.93;;;6.80;;
57233;SDS011;43090;52.604;13.318;2023-04-24T03:33:04;7.85;;;5.68;;
57233;SDS011;43090;52.604;13.318;2023-04-24T03:35:31;8.60;;;5.85;;
57233;SDS011;43090;52.604;13.318;2023-04-24T03:37:58;9.25;;;5.50;;
57233;SDS011;43090;52.604;13.318;2023-04-24T03:40:24;11.93;;;5.88;;
57233;SDS011;43090;52.604;13.318;2023-04-24T03:42:51;9.15;;;5.93;;
57233;SDS011;43090;52.604;13.318;2023-04-24T03:45:17;9.05;;;6.07;;
57233;SDS011;43090;52.604;13.318;2023-04-24T03:47:44;11.43;;;5.13;;
57233;SDS011;43090;52.604;13.318;2023-04-24T03:50:10;7.72;;;5.53;;
57233;SDS011;43090;52.604;13.318;2023-04-24T03:52:38;7.55;;;5.25;;
57233;SDS011;43090;52.604;13.318;2023-04-24T03:55:04;8.38;;;5.45;;
57233;SDS011;43090;52.604;13.318;2023-04-24T03:57:32;13.40;;;5.60;;
57233;SDS011;43090;52.604;13.318;2023-04-24T03:59:59;11.23;;;5.63;;
57233;SDS011;43090;52.604;13.318;2023-04-24T04:02:26;9.10;;;5.63;;
57233;SDS011;43090;52.604;13.318;2023-04-24T04:07:19;8.63;;;5.38;;
57233;SDS011;43090;52.604;13.318;2023-04-24T04:09:46;7.88;;;4.95;;
57233;SDS011;43090;52.604;13.318;2023-04-24T04:12:12;8.20;;;5.57;;
57233;SDS011;43090;52.604;13.318;2023-04-24T04:14:38;7.20;;;5.38;;
57233;SDS011;43090;52.604;13.318;2023-04-24T04:17:05;11.38;;;5.78;;
57233;SDS011;43090;52.604;13.318;2023-04-24T04:19:31;9.95;;;5.28;;
57233;SDS011;43090;52.604;13.318;2023-04-24T04:21:58;7.13;;;4.95;;
57233;SDS011;43090;52.604;13.318;2023-04-24T04:24:25;9.27;;;6.03;;
57233;SDS011;43090;52.604;13.318;2023-04-24T04:26:52;8.57;;;4.70;;
57233;SDS011;43090;52.604;13.318;2023-04-24T04:29:22;8.32;;;5.20;;
57233;SDS011;43090;52.604;13.318;2023-04-24T04:31:50;8.40;;;5.65;;
57233;SDS011;43090;52.604;13.318;2023-04-24T04:34:16;7.97;;;5.65;;
57233;SDS011;43090;52.604;13.318;2023-04-24T04:36:43;8.57;;;5.05;;
57233;SDS011;43090;52.604;13.318;2023-04-24T04:39:10;12.27;;;5.18;;
57233;SDS011;43090;52.604;13.318;2023-04-24T04:41:36;11.68;;;5.50;;
57233;SDS011;43090;52.604;13.318;2023-04-24T04:44:03;11.27;;;5.40;;
57233;SDS011;43090;52.604;13.318;2023-04-24T04:49:00;9.02;;;5.47;;
57233;SDS011;43090;52.604;13.318;2023-04-24T04:51:27;6.05;;;4.55;;
57233;SDS011;43090;52.604;13.318;2023-04-24T04:53:53;10.50;;;5.05;;
57233;SDS011;43090;52.604;13.318;2023-04-24T04:56:20;8.07;;;5.00;;
57233;SDS011;43090;52.604;13.318;2023-04-24T04:58:46;6.70;;;5.00;;
57233;SDS011;43090;52.604;13.318;2023-04-24T05:01:13;7.05;;;4.55;;
57233;SDS011;43090;52.604;13.318;2023-04-24T05:06:09;7.88;;;4.97;;
57233;SDS011;43090;52.604;13.318;2023-04-24T05:08:36;7.88;;;4.95;;
57233;SDS011;43090;52.604;13.318;2023-04-24T05:11:02;8.18;;;4.95;;
57233;SDS011;43090;52.604;13.318;2023-04-24T05:13:29;9.45;;;4.63;;
57233;SDS011;43090;52.604;13.318;2023-04-24T05:16:05;11.38;;;4.57;;
57233;SDS011;43090;52.604;13.318;2023-04-24T05:18:32;6.53;;;4.63;;
57233;SDS011;43090;52.604;13.318;2023-04-24T05:20:59;7.40;;;4.85;;
57233;SDS011;43090;52.604;13.318;2023-04-24T05:25:52;7.20;;;4.30;;
57233;SDS011;43090;52.604;13.318;2023-04-24T05:28:19;6.03;;;3.95;;
57233;SDS011;43090;52.604;13.318;2023-04-24T05:30:46;7.30;;;4.05;;
57233;SDS011;43090;52.604;13.318;2023-04-24T05:33:12;9.90;;;4.50;;
57233;SDS011;43090;52.604;13.318;2023-04-24T05:35:40;6.75;;;3.90;;
57233;SDS011;43090;52.604;13.318;2023-04-24T05:38:12;4.93;;;3.88;;
57233;SDS011;43090;52.604;13.318;2023-04-24T05:40:39;8.27;;;4.15;;
57233;SDS011;43090;52.604;13.318;2023-04-24T05:43:06;15.35;;;3.72;;
57233;SDS011;43090;52.604;13.318;2023-04-24T05:45:42;4.90;;;3.88;;
57233;SDS011;43090;52.604;13.318;2023-04-24T05:48:08;5.53;;;3.88;;
57233;SDS011;43090;52.604;13.318;2023-04-24T05:50:35;7.15;;;3.70;;
57233;SDS011;43090;52.604;13.318;2023-04-24T05:53:02;5.82;;;3.08;;
57233;SDS011;43090;52.604;13.318;2023-04-24T05:55:30;10.65;;;3.22;;
57233;SDS011;43090;52.604;13.318;2023-04-24T05:57:56;4.25;;;2.90;;
57233;SDS011;43090;52.604;13.318;2023-04-24T06:00:23;4.70;;;3.00;;
57233;SDS011;43090;52.604;13.318;2023-04-24T06:02:50;6.63;;;2.80;;
57233;SDS011;43090;52.604;13.318;2023-04-24T06:05:19;7.57;;;3.53;;
57233;SDS011;43090;52.604;13.318;2023-04-24T06:07:46;6.63;;;3.10;;
57233;SDS011;43090;52.604;13.318;2023-04-24T06:10:12;3.58;;;2.50;;
57233;SDS011;43090;52.604;13.318;2023-04-24T06:12:39;7.25;;;2.92;;
57233;SDS011;43090;52.604;13.318;2023-04-24T06:15:06;6.60;;;2.83;;
57233;SDS011;43090;52.604;13.318;2023-04-24T06:17:33;4.60;;;2.75;;
57233;SDS011;43090;52.604;13.318;2023-04-24T06:19:59;3.80;;;2.58;;
57233;SDS011;43090;52.604;13.318;2023-04-24T06:22:26;3.95;;;2.72;;
57233;SDS011;43090;52.604;13.318;2023-04-24T06:27:19;8.60;;;2.65;;
57233;SDS011;43090;52.604;13.318;2023-04-24T06:29:45;8.65;;;2.10;;
57233;SDS011;43090;52.604;13.318;2023-04-24T06:32:12;3.47;;;2.05;;
57233;SDS011;43090;52.604;13.318;2023-04-24T06:37:05;3.00;;;2.22;;
57233;SDS011;43090;52.604;13.318;2023-04-24T06:39:32;4.57;;;1.70;;
57233;SDS011;43090;52.604;13.318;2023-04-24T06:41:58;3.50;;;1.50;;
57233;SDS011;43090;52.604;13.318;2023-04-24T06:44:24;2.95;;;1.60;;
57233;SDS011;43090;52.604;13.318;2023-04-24T06:46:51;8.25;;;1.65;;
57233;SDS011;43090;52.604;13.318;2023-04-24T06:49:18;3.33;;;2.13;;
57233;SDS011;43090;52.604;13.318;2023-04-24T06:51:47;1.90;;;1.40;;
57233;SDS011;43090;52.604;13.318;2023-04-24T06:54:14;2.72;;;1.25;;
57233;SDS011;43090;52.604;13.318;2023-04-24T06:56:40;1.67;;;1.13;;
57233;SDS011;43090;52.604;13.318;2023-04-24T06:59:07;1.23;;;1.10;;
57233;SDS011;43090;52.604;13.318;2023-04-24T07:01:33;1.67;;;1.25;;
57233;SDS011;43090;52.604;13.318;2023-04-24T07:04:00;3.25;;;1.10;;
57233;SDS011;43090;52.604;13.318;2023-04-24T07:08:53;2.83;;;1.00;;
57233;SDS011;43090;52.604;13.318;2023-04-24T07:11:22;1.48;;;0.82;;
57233;SDS011;43090;52.604;13.318;2023-04-24T07:13:49;2.38;;;0.80;;
57233;SDS011;43090;52.604;13.318;2023-04-24T07:16:15;1.05;;;0.90;;
57233;SDS011;43090;52.604;13.318;2023-04-24T07:18:42;1.65;;;0.90;;
57233;SDS011;43090;52.604;13.318;2023-04-24T07:21:08;1.92;;;1.10;;
57233;SDS011;43090;52.604;13.318;2023-04-24T07:23:35;1.10;;;0.63;;
57233;SDS011;43090;52.604;13.318;2023-04-24T07:26:02;1.50;;;0.80;;
57233;SDS011;43090;52.604;13.318;2023-04-24T07:28:28;3.53;;;1.30;;
57233;SDS011;43090;52.604;13.318;2023-04-24T07:30:57;2.45;;;0.80;;
57233;SDS011;43090;52.604;13.318;2023-04-24T07:33:25;1.30;;;0.70;;
57233;SDS011;43090;52.604;13.318;2023-04-24T07:35:52;3.35;;;1.27;;
57233;SDS011;43090;52.604;13.318;2023-04-24T07:40:48;3.08;;;0.98;;
57233;SDS011;43090;52.604;13.318;2023-04-24T07:45:41;0.85;;;0.70;;
57233;SDS011;43090;52.604;13.318;2023-04-24T07:48:08;3.58;;;0.98;;
57233;SDS011;43090;52.604;13.318;2023-04-24T07:50:35;0.88;;;0.68;;
57233;SDS011;43090;52.604;13.318;2023-04-24T07:53:02;1.38;;;0.77;;
57233;SDS011;43090;52.604;13.318;2023-04-24T07:55:28;0.52;;;0.50;;
57233;SDS011;43090;52.604;13.318;2023-04-24T07:57:55;1.80;;;0.65;;
57233;SDS011;43090;52.604;13.318;2023-04-24T08:02:48;1.25;;;0.65;;
57233;SDS011;43090;52.604;13.318;2023-04-24T08:05:15;0.55;;;0.50;;
57233;SDS011;43090;52.604;13.318;2023-04-24T08:10:12;1.25;;;0.50;;
57233;SDS011;43090;52.604;13.318;2023-04-24T08:12:38;1.40;;;0.50;;
57233;SDS011;43090;52.604;13.318;2023-04-24T08:15:05;2.28;;;1.02;;
57233;SDS011;43090;52.604;13.318;2023-04-24T08:17:33;1.63;;;0.73;;
57233;SDS011;43090;52.604;13.318;2023-04-24T08:20:01;3.85;;;0.68;;
57233;SDS011;43090;52.604;13.318;2023-04-24T08:22:28;0.68;;;0.50;;
57233;SDS011;43090;52.604;13.318;2023-04-24T08:24:55;0.75;;;0.50;;
57233;SDS011;43090;52.604;13.318;2023-04-24T08:27:23;0.85;;;0.57;;
57233;SDS011;43090;52.604;13.318;2023-04-24T08:32:16;1.50;;;0.60;;
57233;SDS011;43090;52.604;13.318;2023-04-24T08:37:09;1.58;;;0.55;;
57233;SDS011;43090;52.604;13.318;2023-04-24T08:39:36;0.85;;;0.50;;
57233;SDS011;43090;52.604;13.318;2023-04-24T08:42:04;0.75;;;0.60;;
57233;SDS011;43090;52.604;13.318;2023-04-24T08:44:34;2.10;;;0.75;;
57233;SDS011;43090;52.604;13.318;2023-04-24T08:47:02;0.98;;;0.45;;
57233;SDS011;43090;52.604;13.318;2023-04-24T08:49:29;2.05;;;0.43;;
57233;SDS011;43090;52.604;13.318;2023-04-24T08:51:56;1.05;;;0.52;;
57233;SDS011;43090;52.604;13.318;2023-04-24T08:54:23;2.03;;;0.70;;
57233;SDS011;43090;52.604;13.318;2023-04-24T08:56:51;1.30;;;0.47;;
57233;SDS011;43090;52.604;13.318;2023-04-24T08:59:21;0.57;;;0.40;;
57233;SDS011;43090;52.604;13.318;2023-04-24T09:01:48;1.48;;;0.57;;
57233;SDS011;43090;52.604;13.318;2023-04-24T09:04:17;1.38;;;0.40;;
57233;SDS011;43090;52.604;13.318;2023-04-24T09:06:48;0.60;;;0.40;;
57233;SDS011;43090;52.604;13.318;2023-04-24T09:09:15;1.25;;;0.30;;
57233;SDS011;43090;52.604;13.318;2023-04-24T09:11:42;1.85;;;0.68;;
57233;SDS011;43090;52.604;13.318;2023-04-24T09:14:09;3.25;;;0.60;;
57233;SDS011;43090;52.604;13.318;2023-04-24T09:16:36;4.30;;;0.85;;
57233;SDS011;43090;52.604;13.318;2023-04-24T09:19:03;1.65;;;0.70;;
57233;SDS011;43090;52.604;13.318;2023-04-24T09:21:33;0.70;;;0.40;;
57233;SDS011;43090;52.604;13.318;2023-04-24T09:24:01;6.03;;;0.63;;
57233;SDS011;43090;52.604;13.318;2023-04-24T09:26:30;0.80;;;0.47;;
57233;SDS011;43090;52.604;13.318;2023-04-24T09:29:00;1.17;;;0.63;;
57233;SDS011;43090;52.604;13.318;2023-04-24T09:31:27;1.85;;;0.65;;
57233;SDS011;43090;52.604;13.318;2023-04-24T09:33:57;3.78;;;0.85;;
57233;SDS011;43090;52.604;13.318;2023-04-24T09:36:31;3.50;;;0.60;;
57233;SDS011;43090;52.604;13.318;2023-04-24T09:39:05;0.98;;;0.57;;
57233;SDS011;43090;52.604;13.318;2023-04-24T09:41:34;1.20;;;0.50;;
57233;SDS011;43090;52.604;13.318;2023-04-24T09:44:11;2.65;;;0.57;;
57233;SDS011;43090;52.604;13.318;2023-04-24T09:46:45;4.40;;;1.27;;
57233;SDS011;43090;52.604;13.318;2023-04-24T09:49:16;1.05;;;0.47;;
57233;SDS011;43090;52.604;13.318;2023-04-24T09:51:48;1.05;;;0.45;;
57233;SDS011;43090;52.604;13.318;2023-04-24T09:54:15;3.20;;;0.77;;
57233;SDS011;43090;52.604;13.318;2023-04-24T09:56:50;0.75;;;0.52;;
57233;SDS011;43090;52.604;13.318;2023-04-24T09:59:17;1.38;;;0.60;;
57233;SDS011;43090;52.604;13.318;2023-04-24T10:01:45;1.20;;;0.60;;
57233;SDS011;43090;52.604;13.318;2023-04-24T10:04:15;3.38;;;0.60;;
57233;SDS011;43090;52.604;13.318;2023-04-24T10:06:44;3.08;;;0.73;;
57233;SDS011;43090;52.604;13.318;2023-04-24T10:09:11;1.38;;;0.68;;
57233;SDS011;43090;52.604;13.318;2023-04-24T10:11:42;2.20;;;0.70;;
57233;SDS011;43090;52.604;13.318;2023-04-24T10:14:22;3.28;;;0.80;;
57233;SDS011;43090;52.604;13.318;2023-04-24T10:16:50;1.00;;;0.60;;
57233;SDS011;43090;52.604;13.318;2023-04-24T10:19:19;4.20;;;0.52;;
57233;SDS011;43090;52.604;13.318;2023-04-24T10:21:50;5.22;;;0.60;;
57233;SDS011;43090;52.604;13.318;2023-04-24T10:24:17;1.08;;;0.50;;
57233;SDS011;43090;52.604;13.318;2023-04-24T10:26:47;1.58;;;0.50;;
57233;SDS011;43090;52.604;13.318;2023-04-24T10:29:15;1.55;;;0.60;;
57233;SDS011;43090;52.604;13.318;2023-04-24T10:31:43;3.08;;;0.50;;
57233;SDS011;43090;52.604;13.318;2023-04-24T10:34:14;5.85;;;0.50;;
57233;SDS011;43090;52.604;13.318;2023-04-24T10:36:48;1.27;;;0.60;;
57233;SDS011;43090;52.604;13.318;2023-04-24T10:39:19;2.47;;;0.52;;
57233;SDS011;43090;52.604;13.318;2023-04-24T10:41:53;3.72;;;0.50;;
57233;SDS011;43090;52.604;13.318;2023-04-24T10:44:22;3.22;;;0.80;;
57233;SDS011;43090;52.604;13.318;2023-04-24T10:46:53;3.45;;;1.00;;
57233;SDS011;43090;52.604;13.318;2023-04-24T10:49:28;3.08;;;0.82;;
57233;SDS011;43090;52.604;13.318;2023-04-24T10:51:59;0.80;;;0.40;;
57233;SDS011;43090;52.604;13.318;2023-04-24T10:54:29;1.30;;;0.50;;
57233;SDS011;43090;52.604;13.318;2023-04-24T10:59:52;9.18;;;0.88;;
57233;SDS011;43090;52.604;13.318;2023-04-24T11:02:39;1.55;;;0.70;;
57233;SDS011;43090;52.604;13.318;2023-04-24T11:05:09;2.00;;;0.60;;
57233;SDS011;43090;52.604;13.318;2023-04-24T11:10:44;1.30;;;0.43;;
57233;SDS011;43090;52.604;13.318;2023-04-24T11:13:15;3.25;;;0.73;;
57233;SDS011;43090;52.604;13.318;2023-04-24T11:15:43;1.20;;;0.60;;
57233;SDS011;43090;52.604;13.318;2023-04-24T11:18:15;1.27;;;0.70;;
57233;SDS011;43090;52.604;13.318;2023-04-24T11:20:45;3.95;;;0.82;;
57233;SDS011;43090;52.604;13.318;2023-04-24T11:23:12;2.47;;;0.57;;
57233;SDS011;43090;52.604;13.318;2023-04-24T11:28:07;2.05;;;0.55;;
57233;SDS011;43090;52.604;13.318;2023-04-24T11:30:33;2.50;;;0.80;;
57233;SDS011;43090;52.604;13.318;2023-04-24T11:33:02;5.00;;;0.68;;
57233;SDS011;43090;52.604;13.318;2023-04-24T11:35:30;2.35;;;0.80;;
57233;SDS011;43090;52.604;13.318;2023-04-24T11:38:05;2.17;;;0.50;;
57233;SDS011;43090;52.604;13.318;2023-04-24T11:40:49;0.98;;;0.63;;
57233;SDS011;43090;52.604;13.318;2023-04-24T11:43:16;4.30;;;0.73;;
57233;SDS011;43090;52.604;13.318;2023-04-24T11:45:47;2.70;;;1.38;;
57233;SDS011;43090;52.604;13.318;2023-04-24T11:48:18;1.40;;;0.98;;
57233;SDS011;43090;52.604;13.318;2023-04-24T11:50:48;1.15;;;0.60;;
57233;SDS011;43090;52.604;13.318;2023-04-24T11:53:15;1.25;;;0.80;;
57233;SDS011;43090;52.604;13.318;2023-04-24T11:55:41;2.47;;;0.57;;
57233;SDS011;43090;52.604;13.318;2023-04-24T11:58:08;2.03;;;0.50;;
57233;SDS011;43090;52.604;13.318;2023-04-24T12:00:35;1.98;;;0.55;;
57233;SDS011;43090;52.604;13.318;2023-04-24T12:03:08;3.58;;;0.55;;
57233;SDS011;43090;52.604;13.318;2023-04-24T12:05:37;2.33;;;0.75;;
57233;SDS011;43090;52.604;13.318;2023-04-24T12:08:04;2.17;;;0.82;;
57233;SDS011;43090;52.604;13.318;2023-04-24T12:10:32;0.68;;;0.50;;
57233;SDS011;43090;52.604;13.318;2023-04-24T12:13:20;1.88;;;0.50;;
57233;SDS011;43090;52.604;13.318;2023-04-24T12:16:48;4.43;;;0.93;;
57233;SDS011;43090;52.604;13.318;2023-04-24T12:19:20;2.67;;;0.77;;
57233;SDS011;43090;52.604;13.318;2023-04-24T12:22:00;2.40;;;0.75;;
57233;SDS011;43090;52.604;13.318;2023-04-24T12:24:31;6.72;;;1.00;;
57233;SDS011;43090;52.604;13.318;2023-04-24T12:26:58;2.60;;;1.05;;
57233;SDS011;43090;52.604;13.318;2023-04-24T12:29:27;2.58;;;0.98;;
57233;SDS011;43090;52.604;13.318;2023-04-24T12:31:54;1.52;;;0.70;;
57233;SDS011;43090;52.604;13.318;2023-04-24T12:34:26;3.50;;;1.00;;
57233;SDS011;43090;52.604;13.318;2023-04-24T12:36:52;1.90;;;0.60;;
57233;SDS011;43090;52.604;13.318;2023-04-24T12:39:19;5.60;;;0.70;;
57233;SDS011;43090;52.604;13.318;2023-04-24T12:41:56;2.30;;;0.60;;
57233;SDS011;43090;52.604;13.318;2023-04-24T12:44:29;4.10;;;0.80;;
57233;SDS011;43090;52.604;13.318;2023-04-24T12:46:56;4.40;;;0.90;;
57233;SDS011;43090;52.604;13.318;2023-04-24T12:49:23;2.15;;;0.70;;
57233;SDS011;43090;52.604;13.318;2023-04-24T12:51:50;2.63;;;0.60;;
57233;SDS011;43090;52.604;13.318;2023-04-24T12:54:19;2.65;;;0.73;;
57233;SDS011;43090;52.604;13.318;2023-04-24T12:56:46;2.10;;;0.63;;
57233;SDS011;43090;52.604;13.318;2023-04-24T12:59:12;3.33;;;0.55;;
57233;SDS011;43090;52.604;13.318;2023-04-24T13:01:40;0.68;;;0.30;;
57233;SDS011;43090;52.604;13.318;2023-04-24T13:04:07;1.10;;;0.65;;
57233;SDS011;43090;52.604;13.318;2023-04-24T13:09:00;2.78;;;0.60;;
57233;SDS011;43090;52.604;13.318;2023-04-24T13:11:27;5.88;;;0.70;;
57233;SDS011;43090;52.604;13.318;2023-04-24T13:13:54;3.42;;;0.80;;
57233;SDS011;43090;52.604;13.318;2023-04-24T13:18:47;1.65;;;0.70;;
57233;SDS011;43090;52.604;13.318;2023-04-24T13:21:13;6.07;;;1.40;;
57233;SDS011;43090;52.604;13.318;2023-04-24T13:23:40;7.25;;;0.60;;
57233;SDS011;43090;52.604;13.318;2023-04-24T13:26:07;0.63;;;0.45;;
57233;SDS011;43090;52.604;13.318;2023-04-24T13:31:01;1.75;;;0.80;;
57233;SDS011;43090;52.604;13.318;2023-04-24T13:33:27;7.13;;;0.88;;
57233;SDS011;43090;52.604;13.318;2023-04-24T13:35:54;5.20;;;1.00;;
57233;SDS011;43090;52.604;13.318;2023-04-24T13:38:20;2.92;;;0.90;;
57233;SDS011;43090;52.604;13.318;2023-04-24T13:40:48;1.35;;;0.52;;
57233;SDS011;43090;52.604;13.318;2023-04-24T13:43:14;2.25;;;0.70;;
57233;SDS011;43090;52.604;13.318;2023-04-24T13:45:41;3.47;;;0.80;;
57233;SDS011;43090;52.604;13.318;2023-04-24T13:48:08;0.73;;;0.57;;
57233;SDS011;43090;52.604;13.318;2023-04-24T13:50:35;2.20;;;0.65;;
57233;SDS011;43090;52.604;13.318;2023-04-24T13:53:02;4.90;;;0.90;;
57233;SDS011;43090;52.604;13.318;2023-04-24T13:55:28;1.42;;;0.80;;
57233;SDS011;43090;52.604;13.318;2023-04-24T13:57:55;4.28;;;1.20;;
57233;SDS011;43090;52.604;13.318;2023-04-24T14:00:22;1.83;;;0.80;;
57233;SDS011;43090;52.604;13.318;2023-04-24T14:02:48;2.03;;;1.00;;
57233;SDS011;43090;52.604;13.318;2023-04-24T14:07:42;2.55;;;0.80;;
57233;SDS011;43090;52.604;13.318;2023-04-24T14:10:08;0.90;;;0.60;;
57233;SDS011;43090;52.604;13.318;2023-04-24T14:12:35;2.55;;;0.90;;
57233;SDS011;43090;52.604;13.318;2023-04-24T14:15:02;2.85;;;0.80;;
57233;SDS011;43090;52.604;13.318;2023-04-24T14:17:30;1.17;;;0.80;;
57233;SDS011;43090;52.604;13.318;2023-04-24T14:19:57;1.25;;;0.63;;
57233;SDS011;43090;52.604;13.318;2023-04-24T14:22:26;1.48;;;0.77;;
57233;SDS011;43090;52.604;13.318;2023-04-24T14:24:52;0.98;;;0.50;;
57233;SDS011;43090;52.604;13.318;2023-04-24T14:27:19;2.85;;;0.40;;
57233;SDS011;43090;52.604;13.318;2023-04-24T14:29:45;1.70;;;0.80;;
57233;SDS011;43090;52.604;13.318;2023-04-24T14:32:12;2.95;;;0.52;;
57233;SDS011;43090;52.604;13.318;2023-04-24T14:34:44;1.00;;;0.55;;
57233;SDS011;43090;52.604;13.318;2023-04-24T14:37:10;2.05;;;0.75;;
57233;SDS011;43090;52.604;13.318;2023-04-24T14:39:36;0.40;;;0.40;;
57233;SDS011;43090;52.604;13.318;2023-04-24T14:42:03;3.75;;;0.85;;
57233;SDS011;43090;52.604;13.318;2023-04-24T14:44:29;0.95;;;0.65;;
57233;SDS011;43090;52.604;13.318;2023-04-24T14:46:56;5.65;;;0.80;;
57233;SDS011;43090;52.604;13.318;2023-04-24T14:49:23;5.65;;;0.68;;
57233;SDS011;43090;52.604;13.318;2023-04-24T14:51:49;2.83;;;1.00;;
57233;SDS011;43090;52.604;13.318;2023-04-24T14:54:16;3.47;;;0.50;;
57233;SDS011;43090;52.604;13.318;2023-04-24T14:56:42;3.15;;;0.80;;
57233;SDS011;43090;52.604;13.318;2023-04-24T14:59:10;1.88;;;0.85;;
57233;SDS011;43090;52.604;13.318;2023-04-24T15:01:37;2.55;;;0.80;;
57233;SDS011;43090;52.604;13.318;2023-04-24T15:04:03;2.28;;;0.68;;
57233;SDS011;43090;52.604;13.318;2023-04-24T15:06:30;0.60;;;0.60;;
57233;SDS011;43090;52.604;13.318;2023-04-24T15:08:57;3.33;;;1.05;;
57233;SDS011;43090;52.604;13.318;2023-04-24T15:11:24;1.00;;;0.75;;
57233;SDS011;43090;52.604;13.318;2023-04-24T15:13:51;0.77;;;0.60;;
57233;SDS011;43090;52.604;13.318;2023-04-24T15:16:17;1.10;;;0.80;;
57233;SDS011;43090;52.604;13.318;2023-04-24T15:18:44;2.15;;;0.85;;
57233;SDS011;43090;52.604;13.318;2023-04-24T15:21:10;0.77;;;0.77;;
57233;SDS011;43090;52.604;13.318;2023-04-24T15:23:38;5.15;;;0.70;;
57233;SDS011;43090;52.604;13.318;2023-04-24T15:26:05;5.63;;;0.70;;
57233;SDS011;43090;52.604;13.318;2023-04-24T15:28:31;3.00;;;0.90;;
57233;SDS011;43090;52.604;13.318;2023-04-24T15:30:58;1.02;;;0.80;;
57233;SDS011;43090;52.604;13.318;2023-04-24T15:33:24;0.65;;;0.63;;
57233;SDS011;43090;52.604;13.318;2023-04-24T15:35:52;4.45;;;1.00;;
57233;SDS011;43090;52.604;13.318;2023-04-24T15:38:18;0.90;;;0.68;;
57233;SDS011;43090;52.604;13.318;2023-04-24T15:40:44;1.60;;;0.93;;
57233;SDS011;43090;52.604;13.318;2023-04-24T15:43:11;5.78;;;1.10;;
57233;SDS011;43090;52.604;13.318;2023-04-24T15:45:37;11.57;;;1.38;;
57233;SDS011;43090;52.604;13.318;2023-04-24T15:48:04;9.18;;;1.02;;
57233;SDS011;43090;52.604;13.318;2023-04-24T15:50:31;0.70;;;0.70;;
57233;SDS011;43090;52.604;13.318;2023-04-24T15:52:58;2.35;;;0.88;;
57233;SDS011;43090;52.604;13.318;2023-04-24T15:55:24;2.22;;;0.75;;
57233;SDS011;43090;52.604;13.318;2023-04-24T15:57:51;1.25;;;1.15;;
57233;SDS011;43090;52.604;13.318;2023-04-24T16:00:17;3.75;;;0.80;;